Time;durP1;ratioP1;P1;durP2;ratioP2;P2;SDS_P1;SDS_P2;PMS_P1;PMS_P2;Temp;Humidity;BMP_temperature;BMP_pressure;BME280_temperature;BME280_humidity;BME280_pressure;Samples;Min_cycle;Max_cycle;Signal;HPM_P1;HPM_P2
2023/11/14 00:00:53;;;;;;;2.72;0.95;;;15.40;99.90;;;;;;5016841;28;20050;-81
2023/11/14 00:03:20;;;;;;;2.28;1.00;;;15.40;99.90;;;;;;5013246;28;20581;-81
2023/11/14 00:05:54;;;;;;;1.27;0.80;;;15.30;99.90;;;;;;5013571;28;20108;-79
2023/11/14 00:08:23;;;;;;;3.75;0.95;;;15.30;99.90;;;;;;5011084;28;20096;-82
2023/11/14 00:10:51;;;;;;;6.38;1.13;;;15.30;99.90;;;;;;5037271;22;20049;-78
2023/11/14 00:13:18;;;;;;;2.13;0.98;;;15.30;99.90;;;;;;5012842;28;20124;-77
2023/11/14 00:15:45;;;;;;;4.53;1.20;;;15.30;99.90;;;;;;5014975;28;20077;-78
2023/11/14 00:18:11;;;;;;;3.28;1.20;;;15.30;99.90;;;;;;5014661;28;20046;-76
2023/11/14 00:20:39;;;;;;;2.78;1.00;;;15.20;99.90;;;;;;5014760;28;20136;-78
2023/11/14 00:23:06;;;;;;;1.77;1.27;;;15.30;99.90;;;;;;5015415;28;20128;-78
2023/11/14 00:25:33;;;;;;;3.17;0.93;;;15.30;99.90;;;;;;5018561;28;20050;-77
2023/11/14 00:28:00;;;;;;;4.55;0.82;;;15.20;99.90;;;;;;5018610;28;20049;-78
2023/11/14 00:30:27;;;;;;;2.90;0.75;;;15.20;99.90;;;;;;5001042;28;20057;-78
2023/11/14 00:32:53;;;;;;;2.70;0.70;;;15.20;99.90;;;;;;5019114;28;20053;-78
2023/11/14 00:35:20;;;;;;;0.43;0.43;;;15.20;99.90;;;;;;5018153;28;20078;-78
2023/11/14 00:37:47;;;;;;;0.63;0.40;;;15.20;99.90;;;;;;5019167;28;20472;-78
2023/11/14 00:40:14;;;;;;;1.13;0.60;;;15.20;99.90;;;;;;5001258;28;20050;-78
2023/11/14 00:42:41;;;;;;;1.02;0.50;;;15.20;99.90;;;;;;5018633;28;20489;-77
2023/11/14 00:45:10;;;;;;;1.30;0.70;;;15.20;99.90;;;;;;5003019;28;20073;-76
2023/11/14 00:47:37;;;;;;;3.38;0.40;;;15.20;99.90;;;;;;5020420;28;20457;-77
2023/11/14 00:50:05;;;;;;;1.02;0.40;;;15.20;99.90;;;;;;5018929;28;20054;-78
2023/11/14 00:52:31;;;;;;;0.82;0.40;;;15.20;99.90;;;;;;5005291;28;20084;-77
2023/11/14 00:54:58;;;;;;;0.73;0.50;;;15.20;99.90;;;;;;5004498;28;20330;-78
2023/11/14 00:57:25;;;;;;;0.80;0.40;;;15.20;99.90;;;;;;5018716;28;20046;-77
2023/11/14 00:59:52;;;;;;;1.00;0.30;;;15.20;99.90;;;;;;5024387;28;20046;-76
2023/11/14 01:02:19;;;;;;;1.63;0.40;;;15.20;99.90;;;;;;5023421;28;20073;-77
2023/11/14 01:04:45;;;;;;;0.50;0.22;;;15.10;99.90;;;;;;5018024;28;20050;-77
2023/11/14 01:07:12;;;;;;;0.30;0.30;;;15.10;99.90;;;;;;5018321;28;20490;-78
2023/11/14 01:09:39;;;;;;;0.38;0.30;;;15.10;99.90;;;;;;5017206;28;20077;-77
2023/11/14 01:12:06;;;;;;;2.53;0.50;;;15.00;99.90;;;;;;5017818;28;20461;-77
2023/11/14 01:14:33;;;;;;;0.68;0.50;;;15.00;99.90;;;;;;5000033;28;20418;-78
2023/11/14 01:16:59;;;;;;;0.35;0.30;;;15.00;99.90;;;;;;5018130;28;20042;-78
2023/11/14 01:19:26;;;;;;;1.73;0.55;;;15.00;99.90;;;;;;5017830;28;20061;-76
2023/11/14 01:21:53;;;;;;;1.52;0.35;;;15.00;99.90;;;;;;5017609;28;20112;-77
2023/11/14 01:24:22;;;;;;;0.65;0.30;;;15.00;99.90;;;;;;4999678;28;20049;-77
2023/11/14 01:26:49;;;;;;;0.35;0.30;;;15.00;99.90;;;;;;5017064;28;20054;-78
2023/11/14 01:29:16;;;;;;;0.50;0.30;;;15.00;99.90;;;;;;5016894;28;20104;-77
2023/11/14 01:31:42;;;;;;;4.03;0.40;;;15.00;99.90;;;;;;5017183;28;20418;-77
2023/11/14 01:34:09;;;;;;;0.57;0.20;;;15.00;99.90;;;;;;5016482;28;20100;-77
2023/11/14 01:36:37;;;;;;;0.70;0.35;;;14.90;99.90;;;;;;4999323;28;20080;-77
2023/11/14 01:39:06;;;;;;;0.98;0.30;;;14.90;99.90;;;;;;4999086;28;20506;-78
2023/11/14 01:41:33;;;;;;;0.20;0.20;;;14.90;99.90;;;;;;5017172;28;20054;-77
2023/11/14 01:44:00;;;;;;;0.20;0.20;;;14.90;99.90;;;;;;5016976;28;20053;-77
2023/11/14 01:46:27;;;;;;;1.15;0.28;;;14.90;99.90;;;;;;5016768;28;20115;-77
2023/11/14 01:48:54;;;;;;;0.80;0.38;;;14.90;99.90;;;;;;5016885;28;20057;-78
2023/11/14 01:51:24;;;;;;;1.05;0.30;;;14.80;99.90;;;;;;5017854;28;20065;-78
2023/11/14 01:53:54;;;;;;;1.42;0.40;;;14.80;99.90;;;;;;5017180;28;20116;-77
2023/11/14 01:56:21;;;;;;;1.13;0.30;;;14.80;99.90;;;;;;5017786;28;20050;-78
2023/11/14 01:58:52;;;;;;;1.15;0.20;;;14.80;99.90;;;;;;5018230;28;20068;-77
2023/11/14 02:01:21;;;;;;;1.85;0.30;;;14.70;99.90;;;;;;4999950;28;20100;-77
2023/11/14 02:03:49;;;;;;;0.10;0.10;;;14.70;99.90;;;;;;5017227;28;20089;-78
2023/11/14 02:06:16;;;;;;;0.68;0.32;;;14.70;99.90;;;;;;5000194;28;20045;-77
2023/11/14 02:08:43;;;;;;;0.52;0.20;;;14.70;99.90;;;;;;5015947;28;20493;-78
2023/11/14 02:11:10;;;;;;;0.80;0.20;;;14.70;99.90;;;;;;5016055;28;20104;-76
2023/11/14 02:13:38;;;;;;;0.40;0.30;;;14.60;99.90;;;;;;5015593;28;20053;-77
2023/11/14 02:16:05;;;;;;;0.13;0.13;;;14.60;99.90;;;;;;5015904;28;20060;-77
2023/11/14 02:18:32;;;;;;;2.75;0.22;;;14.60;99.90;;;;;;4998511;28;20050;-77
2023/11/14 02:20:59;;;;;;;0.75;0.30;;;14.60;99.90;;;;;;5016023;28;20046;-78
2023/11/14 02:23:28;;;;;;;1.15;0.15;;;14.60;99.90;;;;;;5016287;28;20050;-78
2023/11/14 02:25:56;;;;;;;0.95;0.22;;;14.50;99.90;;;;;;5015787;28;20049;-77
2023/11/14 02:28:22;;;;;;;0.38;0.20;;;14.50;99.90;;;;;;4998566;28;20057;-76
2023/11/14 02:30:49;;;;;;;0.43;0.20;;;14.50;99.90;;;;;;5015983;28;20058;-78
2023/11/14 02:33:16;;;;;;;0.30;0.20;;;14.50;99.90;;;;;;5016124;28;20053;-77
2023/11/14 02:35:43;;;;;;;1.92;0.30;;;14.50;99.90;;;;;;5016000;28;20486;-78
2023/11/14 02:38:10;;;;;;;0.30;0.20;;;14.40;99.90;;;;;;5016064;28;20050;-77
2023/11/14 02:40:37;;;;;;;1.08;0.30;;;14.40;99.90;;;;;;5015483;28;20053;-78
2023/11/14 02:43:04;;;;;;;2.72;0.30;;;14.40;99.90;;;;;;5015360;28;20486;-75
2023/11/14 02:45:30;;;;;;;0.20;0.20;;;14.30;99.90;;;;;;5015278;28;20433;-77
2023/11/14 02:47:57;;;;;;;0.30;0.30;;;14.30;99.90;;;;;;5015743;28;20107;-77
2023/11/14 02:50:56;;;;;;;0.70;0.22;;;14.20;99.90;;;;;;4997745;28;20520;-77
2023/11/14 02:53:23;;;;;;;1.90;0.30;;;14.20;99.90;;;;;;5015432;28;20050;-77
2023/11/14 02:55:50;;;;;;;0.40;0.40;;;14.10;99.90;;;;;;4998028;28;20081;-77
2023/11/14 02:58:18;;;;;;;0.63;0.30;;;14.10;99.90;;;;;;5015150;28;20097;-77
2023/11/14 03:00:48;;;;;;;0.22;0.22;;;14.00;99.90;;;;;;4998128;28;20064;-77
2023/11/14 03:03:16;;;;;;;2.78;0.30;;;14.00;99.90;;;;;;5015179;28;20506;-78
2023/11/14 03:05:43;;;;;;;0.50;0.28;;;13.90;99.90;;;;;;4997943;28;20049;-77
2023/11/14 03:08:10;;;;;;;0.50;0.20;;;14.00;99.90;;;;;;5015380;28;20077;-76
2023/11/14 03:10:38;;;;;;;2.08;0.30;;;13.90;99.90;;;;;;5015108;28;20436;-77
2023/11/14 03:13:08;;;;;;;0.20;0.20;;;13.90;99.90;;;;;;5014954;28;20065;-76
2023/11/14 03:15:35;;;;;;;0.52;0.30;;;13.90;99.90;;;;;;4997954;28;20049;-77
2023/11/14 03:18:02;;;;;;;0.47;0.20;;;13.90;99.90;;;;;;5015627;28;20104;-77
2023/11/14 03:20:29;;;;;;;0.32;0.20;;;13.90;99.90;;;;;;5015008;28;20065;-78
2023/11/14 03:23:01;;;;;;;0.32;0.22;;;13.90;99.90;;;;;;4998394;28;20073;-78
2023/11/14 03:25:28;;;;;;;0.73;0.20;;;13.80;99.90;;;;;;5015144;28;20085;-77
2023/11/14 03:27:57;;;;;;;0.55;0.30;;;13.80;99.90;;;;;;5015007;28;20050;-78
2023/11/14 03:30:23;;;;;;;0.65;0.30;;;13.90;99.90;;;;;;5015726;28;20088;-77
2023/11/14 03:32:50;;;;;;;1.13;0.30;;;13.90;99.90;;;;;;5015082;28;20049;-77
2023/11/14 03:35:17;;;;;;;0.38;0.30;;;13.90;99.90;;;;;;5014644;28;20049;-78
2023/11/14 03:37:44;;;;;;;1.13;0.30;;;13.80;99.90;;;;;;5015481;28;20081;-77
2023/11/14 03:40:11;;;;;;;0.38;0.20;;;13.80;99.90;;;;;;5015190;28;20421;-78
2023/11/14 03:42:38;;;;;;;0.85;0.30;;;13.80;99.90;;;;;;4997264;28;20053;-77
2023/11/14 03:45:05;;;;;;;0.50;0.30;;;13.70;99.90;;;;;;5014663;28;20088;-76
2023/11/14 03:47:32;;;;;;;2.38;0.80;;;13.60;99.90;;;;;;5019410;28;20050;-76
2023/11/14 03:49:59;;;;;;;1.08;0.50;;;13.50;99.90;;;;;;5017108;28;20042;-78
2023/11/14 03:52:26;;;;;;;1.40;0.43;;;13.30;99.90;;;;;;4998180;28;20437;-77
2023/11/14 03:54:52;;;;;;;2.10;0.50;;;13.20;99.90;;;;;;5015091;28;20092;-78
2023/11/14 03:57:21;;;;;;;3.50;0.60;;;13.10;99.90;;;;;;5015932;28;20469;-77
2023/11/14 03:59:48;;;;;;;2.40;0.50;;;13.00;99.90;;;;;;5005061;28;20052;-77
2023/11/14 04:02:14;;;;;;;2.08;0.68;;;12.90;99.90;;;;;;5020571;28;20132;-77
2023/11/14 04:04:42;;;;;;;1.58;0.60;;;12.90;99.90;;;;;;5019759;28;20049;-77
2023/11/14 04:07:09;;;;;;;1.77;0.50;;;12.80;99.90;;;;;;5026781;28;20057;-76
2023/11/14 04:09:40;;;;;;;2.35;0.60;;;12.70;99.90;;;;;;5025576;28;20050;-77
2023/11/14 04:12:07;;;;;;;3.58;1.50;;;12.60;99.90;;;;;;5000910;28;20081;-78
2023/11/14 04:14:34;;;;;;;3.13;0.68;;;12.50;99.90;;;;;;5018317;28;20085;-77
2023/11/14 04:17:00;;;;;;;2.25;0.80;;;12.50;99.90;;;;;;5017884;28;20050;-78
2023/11/14 04:19:27;;;;;;;3.17;0.98;;;12.40;99.90;;;;;;5016484;28;20061;-77
2023/11/14 04:21:54;;;;;;;4.53;1.20;;;12.40;99.90;;;;;;5015480;28;20490;-76
2023/11/14 04:24:20;;;;;;;7.00;0.85;;;12.40;99.90;;;;;;5015638;28;20046;-78
2023/11/14 04:26:47;;;;;;;2.53;0.60;;;12.30;99.90;;;;;;5015744;28;20113;-77
2023/11/14 04:29:14;;;;;;;2.60;0.80;;;12.20;99.90;;;;;;5015335;28;20512;-77
2023/11/14 04:31:40;;;;;;;3.55;0.80;;;12.20;99.90;;;;;;5014900;28;20046;-76
2023/11/14 04:34:07;;;;;;;4.07;0.85;;;12.20;99.90;;;;;;5014888;28;20050;-76
2023/11/14 04:36:34;;;;;;;5.05;1.10;;;12.10;99.90;;;;;;4997567;28;20153;-77
2023/11/14 04:39:02;;;;;;;2.97;0.80;;;12.10;99.90;;;;;;5015036;28;20096;-77
2023/11/14 04:41:28;;;;;;;2.78;0.80;;;12.00;99.90;;;;;;5017040;28;20118;-78
2023/11/14 04:43:55;;;;;;;5.20;1.00;;;12.00;99.90;;;;;;5017918;28;20425;-78
2023/11/14 04:46:23;;;;;;;1.95;0.73;;;12.00;99.90;;;;;;5018533;28;20050;-79
2023/11/14 04:48:50;;;;;;;3.58;1.58;;;12.00;99.90;;;;;;5017739;28;20042;-79
2023/11/14 04:51:17;;;;;;;2.15;0.68;;;12.00;99.90;;;;;;5018564;28;20257;-77
2023/11/14 04:53:43;;;;;;;5.13;0.50;;;11.90;99.90;;;;;;5018396;28;20077;-78
2023/11/14 04:56:16;;;;;;;2.80;1.00;;;11.90;99.90;;;;;;5020823;28;20054;-78
2023/11/14 04:58:43;;;;;;;0.50;0.50;;;11.80;99.90;;;;;;5021561;28;20064;-78
2023/11/14 05:01:11;;;;;;;1.58;0.55;;;11.70;99.90;;;;;;5019883;28;20049;-77
2023/11/14 05:03:38;;;;;;;4.72;0.82;;;11.70;99.90;;;;;;5002208;28;20441;-78
2023/11/14 05:06:05;;;;;;;3.65;0.88;;;11.60;99.90;;;;;;5018670;28;20128;-78
2023/11/14 05:08:32;;;;;;;3.15;0.77;;;11.60;99.90;;;;;;5001273;28;20081;-78
2023/11/14 05:10:59;;;;;;;3.20;0.70;;;11.60;99.90;;;;;;5017828;28;20081;-78
2023/11/14 05:13:25;;;;;;;1.60;1.10;;;11.50;99.90;;;;;;5018043;28;20262;-79
2023/11/14 05:15:52;;;;;;;1.48;0.90;;;11.50;99.90;;;;;;5018125;28;20498;-78
2023/11/14 05:18:21;;;;;;;2.72;0.90;;;11.50;99.90;;;;;;5018534;28;20514;-78
2023/11/14 05:20:48;;;;;;;1.08;0.70;;;11.50;99.90;;;;;;5018084;28;20057;-78
2023/11/14 05:23:15;;;;;;;2.92;0.90;;;11.50;99.90;;;;;;5000678;28;20465;-78
2023/11/14 05:25:43;;;;;;;5.30;0.73;;;11.50;99.90;;;;;;5018696;28;20050;-77
2023/11/14 05:28:09;;;;;;;2.65;0.63;;;11.50;99.90;;;;;;5018085;28;20056;-77
2023/11/14 05:30:36;;;;;;;5.55;0.70;;;11.50;99.90;;;;;;5017336;28;20054;-77
2023/11/14 05:33:03;;;;;;;2.70;0.85;;;11.50;99.90;;;;;;5016695;28;20096;-80
2023/11/14 05:35:30;;;;;;;1.38;0.70;;;11.50;99.90;;;;;;4998712;28;20054;-78
2023/11/14 05:37:57;;;;;;;1.60;0.55;;;11.40;99.90;;;;;;5016420;28;20125;-77
2023/11/14 05:40:24;;;;;;;2.58;0.80;;;11.50;99.90;;;;;;4998461;28;20420;-78
2023/11/14 05:42:51;;;;;;;4.28;1.10;;;11.50;99.90;;;;;;4997853;28;20060;-77
2023/11/14 05:45:18;;;;;;;3.90;1.55;;;11.50;99.90;;;;;;4997830;28;20559;-77
2023/11/14 05:47:45;;;;;;;5.35;1.25;;;11.50;99.90;;;;;;4997928;28;20046;-76
2023/11/14 05:50:12;;;;;;;2.20;1.20;;;11.50;99.90;;;;;;5014648;28;20049;-77
2023/11/14 05:52:38;;;;;;;1.83;0.57;;;11.50;99.90;;;;;;5013850;28;20096;-77
2023/11/14 05:55:06;;;;;;;1.58;0.47;;;11.50;99.90;;;;;;5013331;28;20049;-77
2023/11/14 05:57:33;;;;;;;2.35;0.80;;;11.50;99.90;;;;;;4996388;28;20050;-76
2023/11/14 05:59:59;;;;;;;1.80;0.60;;;11.50;99.90;;;;;;5013392;28;20081;-77
2023/11/14 06:02:26;;;;;;;3.05;0.70;;;11.50;99.90;;;;;;5013600;28;20494;-76
2023/11/14 06:04:53;;;;;;;5.13;0.70;;;11.50;99.90;;;;;;5013448;28;20046;-77
2023/11/14 06:07:20;;;;;;;7.53;0.82;;;11.50;99.90;;;;;;5013529;28;20085;-77
2023/11/14 06:09:47;;;;;;;1.63;0.47;;;11.50;99.90;;;;;;5013723;28;20057;-77
2023/11/14 06:12:13;;;;;;;4.95;0.90;;;11.60;99.90;;;;;;5013269;28;20485;-77
2023/11/14 06:14:40;;;;;;;5.50;0.90;;;11.60;99.90;;;;;;5013490;28;20053;-77
2023/11/14 06:17:08;;;;;;;1.67;0.90;;;11.60;99.90;;;;;;5014750;28;20104;-77
2023/11/14 06:19:36;;;;;;;8.75;6.03;;;11.60;99.90;;;;;;5015058;28;20100;-78
2023/11/14 06:22:04;;;;;;;4.10;2.22;;;11.60;99.90;;;;;;5014506;28;20046;-76
2023/11/14 06:24:31;;;;;;;4.47;1.35;;;11.50;99.90;;;;;;4997303;28;20057;-77
2023/11/14 06:26:58;;;;;;;4.50;1.00;;;11.60;99.90;;;;;;5014917;28;20048;-77
2023/11/14 06:29:24;;;;;;;3.15;1.80;;;11.60;99.90;;;;;;5014888;28;20078;-77
2023/11/14 06:31:51;;;;;;;4.32;1.02;;;11.60;99.90;;;;;;5013264;28;20145;-76
2023/11/14 06:34:21;;;;;;;3.08;0.80;;;11.60;99.90;;;;;;5012549;28;20046;-77
2023/11/14 06:36:48;;;;;;;4.83;3.13;;;11.60;99.90;;;;;;5012814;28;20057;-77
2023/11/14 06:39:16;;;;;;;2.80;0.70;;;11.60;99.90;;;;;;5012849;28;20284;-76
2023/11/14 06:41:50;;;;;;;5.93;0.90;;;11.60;99.90;;;;;;5012842;28;20097;-78
2023/11/14 06:44:20;;;;;;;5.38;0.93;;;11.60;99.90;;;;;;4996126;28;20096;-77
2023/11/14 06:46:47;;;;;;;2.25;0.65;;;11.60;99.90;;;;;;5012593;28;20048;-77
2023/11/14 06:49:13;;;;;;;2.10;0.85;;;11.50;99.90;;;;;;5012892;28;20048;-77
2023/11/14 06:51:40;;;;;;;1.95;1.00;;;11.60;99.90;;;;;;5015537;28;20096;-76
2023/11/14 06:54:07;;;;;;;3.88;0.90;;;11.60;99.90;;;;;;5013764;28;20494;-77
2023/11/14 06:56:34;;;;;;;1.75;0.80;;;11.60;99.90;;;;;;5012684;28;20081;-77
2023/11/14 06:59:01;;;;;;;1.33;0.60;;;11.60;99.90;;;;;;4995059;28;20509;-77
2023/11/14 07:01:28;;;;;;;1.77;0.80;;;11.60;99.90;;;;;;4994989;28;20056;-77
2023/11/14 07:03:55;;;;;;;4.68;0.68;;;11.60;99.90;;;;;;5012037;28;20128;-76
2023/11/14 07:06:22;;;;;;;3.05;1.00;;;11.60;99.90;;;;;;5012443;28;20140;-76
2023/11/14 07:08:50;;;;;;;7.05;1.52;;;11.70;99.90;;;;;;5022309;28;20046;-77
2023/11/14 07:11:17;;;;;;;4.22;1.00;;;11.70;99.90;;;;;;4998662;28;20092;-77
2023/11/14 07:13:45;;;;;;;6.95;0.93;;;11.70;99.90;;;;;;5019583;28;20050;-77
2023/11/14 07:16:13;;;;;;;1.55;0.60;;;11.70;99.90;;;;;;5005831;28;20080;-76
2023/11/14 07:18:40;;;;;;;2.78;0.77;;;11.70;99.90;;;;;;5000662;28;20056;-77
2023/11/14 07:21:07;;;;;;;5.18;0.90;;;11.70;99.90;;;;;;4996919;28;20105;-77
2023/11/14 07:23:34;;;;;;;3.17;0.82;;;11.70;99.90;;;;;;5015144;28;20081;-78
2023/11/14 07:26:01;;;;;;;4.65;0.77;;;11.80;99.90;;;;;;5014245;28;20096;-77
2023/11/14 07:28:27;;;;;;;2.75;1.13;;;11.80;99.90;;;;;;5013668;28;20429;-77
2023/11/14 07:30:56;;;;;;;2.85;1.08;;;11.80;99.90;;;;;;5014149;28;20073;-77
2023/11/14 07:33:23;;;;;;;2.90;0.68;;;11.80;99.90;;;;;;5013719;28;20057;-77
2023/11/14 07:35:50;;;;;;;3.17;0.80;;;11.80;99.90;;;;;;5014012;28;20422;-78
2023/11/14 07:38:16;;;;;;;5.40;0.75;;;11.80;99.90;;;;;;5013823;28;20104;-76
2023/11/14 07:40:43;;;;;;;4.43;0.73;;;11.80;99.90;;;;;;5013968;28;20513;-76
2023/11/14 07:43:10;;;;;;;4.30;0.70;;;11.80;99.90;;;;;;5013825;28;20060;-77
2023/11/14 07:45:37;;;;;;;3.53;0.95;;;11.90;99.90;;;;;;5013911;28;20100;-77
2023/11/14 07:48:06;;;;;;;3.22;0.80;;;11.90;99.90;;;;;;5014032;28;20100;-77
2023/11/14 07:50:33;;;;;;;6.07;1.10;;;11.90;99.90;;;;;;5013744;28;20429;-77
2023/11/14 07:53:00;;;;;;;1.55;0.90;;;11.90;99.90;;;;;;5013783;28;20049;-77
2023/11/14 07:55:26;;;;;;;6.15;0.90;;;12.00;99.90;;;;;;5014026;28;20050;-76
2023/11/14 07:57:53;;;;;;;2.63;0.88;;;12.00;99.90;;;;;;5013735;28;20077;-77
2023/11/14 08:00:21;;;;;;;2.92;0.55;;;12.00;99.90;;;;;;5013638;28;20050;-77
2023/11/14 08:02:47;;;;;;;3.13;1.00;;;12.00;99.90;;;;;;4995988;28;20046;-78
2023/11/14 08:05:14;;;;;;;3.20;0.90;;;12.00;99.90;;;;;;5013786;28;20042;-78
2023/11/14 08:07:41;;;;;;;5.75;0.60;;;12.10;99.90;;;;;;5013623;28;20050;-76
2023/11/14 08:10:09;;;;;;;4.30;1.10;;;12.10;99.90;;;;;;5013418;28;20046;-77
2023/11/14 08:12:36;;;;;;;2.42;0.90;;;12.10;99.90;;;;;;5013821;28;20064;-77
2023/11/14 08:15:03;;;;;;;5.03;1.00;;;12.10;99.90;;;;;;5013861;28;20054;-78
2023/11/14 08:17:30;;;;;;;3.28;0.60;;;12.10;99.90;;;;;;5013476;28;20076;-77
2023/11/14 08:19:58;;;;;;;4.10;0.90;;;12.20;99.90;;;;;;5012892;28;20524;-77
2023/11/14 08:22:24;;;;;;;5.18;0.80;;;12.20;99.90;;;;;;5013416;28;20101;-76
2023/11/14 08:24:51;;;;;;;3.45;0.85;;;12.20;99.90;;;;;;5013606;28;20133;-76
2023/11/14 08:27:18;;;;;;;3.13;0.80;;;12.20;99.90;;;;;;5013235;28;20103;-78
2023/11/14 08:29:48;;;;;;;4.43;0.90;;;12.20;99.90;;;;;;5013262;28;20059;-77
2023/11/14 08:32:16;;;;;;;3.53;0.85;;;12.20;99.90;;;;;;5013371;28;20084;-77
2023/11/14 08:34:43;;;;;;;3.95;1.02;;;12.20;99.90;;;;;;5012819;28;20053;-77
2023/11/14 08:37:10;;;;;;;3.50;1.25;;;12.20;99.90;;;;;;5013198;28;20437;-77
2023/11/14 08:39:37;;;;;;;4.75;0.80;;;12.20;99.90;;;;;;5013370;28;20104;-77
2023/11/14 08:42:05;;;;;;;4.57;1.00;;;12.20;99.90;;;;;;4995506;28;20112;-77
2023/11/14 08:44:32;;;;;;;6.53;1.20;;;12.30;99.90;;;;;;5013429;28;20128;-78
2023/11/14 08:46:59;;;;;;;5.20;1.10;;;12.30;99.90;;;;;;5017057;28;20540;-77
2023/11/14 08:49:25;;;;;;;5.20;0.95;;;12.30;99.90;;;;;;5017956;28;20137;-78
2023/11/14 08:51:52;;;;;;;1.85;0.50;;;12.30;99.90;;;;;;5016468;28;20100;-78
2023/11/14 08:54:19;;;;;;;2.30;0.60;;;12.30;99.90;;;;;;5016275;28;20046;-77
2023/11/14 08:56:46;;;;;;;3.03;0.60;;;12.30;99.90;;;;;;5016312;28;20085;-77
2023/11/14 08:59:15;;;;;;;4.03;0.70;;;12.30;99.90;;;;;;5016716;28;20103;-77
2023/11/14 09:01:44;;;;;;;3.30;1.00;;;12.30;99.90;;;;;;5016987;28;20053;-78
2023/11/14 09:04:11;;;;;;;1.47;0.80;;;12.30;99.90;;;;;;5017452;28;20048;-78
2023/11/14 09:06:38;;;;;;;3.08;1.00;;;12.30;99.90;;;;;;5017501;28;20289;-78
2023/11/14 09:09:05;;;;;;;5.45;1.25;;;12.30;99.90;;;;;;5016689;28;20042;-78
2023/11/14 09:11:32;;;;;;;3.63;0.75;;;12.30;99.90;;;;;;5016060;28;20103;-78
2023/11/14 09:14:02;;;;;;;7.43;1.33;;;12.30;99.90;;;;;;4998618;28;20046;-77
2023/11/14 09:16:28;;;;;;;2.75;0.88;;;12.30;99.90;;;;;;5016143;28;20041;-77
2023/11/14 09:18:56;;;;;;;2.83;0.65;;;12.30;99.90;;;;;;5016166;28;20049;-78
2023/11/14 09:21:22;;;;;;;2.47;0.90;;;12.30;99.90;;;;;;5015828;28;20053;-78
2023/11/14 09:23:50;;;;;;;2.80;0.98;;;12.30;99.90;;;;;;5015914;28;20139;-78
2023/11/14 09:26:17;;;;;;;5.97;1.70;;;12.40;99.90;;;;;;5018339;28;20467;-78
2023/11/14 09:28:44;;;;;;;3.38;0.73;;;12.40;99.90;;;;;;5017995;28;20617;-78
2023/11/14 09:31:11;;;;;;;2.25;0.70;;;12.30;99.90;;;;;;5016388;28;20049;-78
2023/11/14 09:33:37;;;;;;;6.75;0.88;;;12.40;99.90;;;;;;4998144;28;20056;-78
2023/11/14 09:36:06;;;;;;;4.97;0.98;;;12.40;99.90;;;;;;4997733;28;20085;-77
2023/11/14 09:38:33;;;;;;;2.05;0.65;;;12.40;99.90;;;;;;4997977;28;20056;-78
2023/11/14 09:41:00;;;;;;;4.35;0.70;;;12.40;99.90;;;;;;5015759;28;20085;-77
2023/11/14 09:43:28;;;;;;;2.47;0.98;;;12.40;99.90;;;;;;5014846;28;20053;-78
2023/11/14 09:45:58;;;;;;;3.72;0.70;;;12.40;99.90;;;;;;5014741;28;20572;-78
2023/11/14 09:48:26;;;;;;;;;;;12.40;99.90;;;;;;5015554;28;20049;-77
2023/11/14 09:50:55;;;;;;;4.13;0.65;;;12.40;99.90;;;;;;4979958;28;19922;-80
2023/11/14 09:53:27;;;;;;;3.17;0.90;;;12.40;99.90;;;;;;4985971;28;20050;-78
2023/11/14 09:55:54;;;;;;;2.85;0.70;;;12.40;99.90;;;;;;4995232;28;20077;-78
2023/11/14 09:58:21;;;;;;;5.53;0.73;;;12.40;99.90;;;;;;4978255;28;20054;-80
2023/11/14 10:00:48;;;;;;;4.57;0.70;;;12.40;99.90;;;;;;5005079;28;20057;-78
2023/11/14 10:03:16;;;;;;;2.08;0.47;;;12.50;99.90;;;;;;5008846;28;20501;-78
2023/11/14 10:05:44;;;;;;;5.05;0.88;;;12.50;99.90;;;;;;4998592;28;20049;-80
2023/11/14 10:08:14;;;;;;;2.08;0.82;;;12.50;99.90;;;;;;5015970;28;20490;-78
2023/11/14 10:11:10;;;;;;;1.75;0.65;;;12.50;99.90;;;;;;4998550;28;20050;-77
2023/11/14 10:13:39;;;;;;;4.50;0.82;;;12.50;99.90;;;;;;4999477;28;20072;-78
2023/11/14 10:16:21;;;;;;;2.80;0.70;;;12.50;99.90;;;;;;5001222;28;20076;-77
2023/11/14 10:18:50;;;;;;;3.25;0.60;;;12.60;99.90;;;;;;5017717;28;20116;-77
2023/11/14 10:21:30;;;;;;;2.13;0.80;;;12.60;99.90;;;;;;5018874;28;20111;-77
2023/11/14 10:24:00;;;;;;;3.88;1.13;;;12.60;99.90;;;;;;5018723;28;20074;-78
2023/11/14 10:26:27;;;;;;;1.45;0.50;;;12.70;99.90;;;;;;5017767;28;20050;-77
2023/11/14 10:28:57;;;;;;;2.78;1.38;;;12.70;99.90;;;;;;5016212;28;20049;-77
2023/11/14 10:31:37;;;;;;;;;;;12.70;99.90;;;;;;5000448;28;20050;-78
2023/11/14 10:34:33;;;;;;;5.00;0.80;;;12.70;99.90;;;;;;5018770;28;19916;-78
2023/11/14 10:37:03;;;;;;;1.88;0.80;;;12.80;99.90;;;;;;5018423;28;20502;-78
2023/11/14 10:39:30;;;;;;;3.10;0.75;;;12.80;99.90;;;;;;5019211;28;20053;-78
2023/11/14 10:42:10;;;;;;;3.97;0.70;;;12.80;99.90;;;;;;5018524;28;20057;-77
2023/11/14 10:44:38;;;;;;;2.67;0.60;;;12.80;99.90;;;;;;5017930;28;20056;-77
2023/11/14 10:47:07;;;;;;;1.70;0.75;;;12.80;99.90;;;;;;5018524;28;20105;-77
2023/11/14 10:49:45;;;;;;;3.40;0.90;;;12.80;99.90;;;;;;5018231;28;20058;-77
2023/11/14 10:52:14;;;;;;;4.13;0.90;;;12.80;99.90;;;;;;5017816;28;20081;-77
2023/11/14 10:54:42;;;;;;;2.83;0.60;;;12.90;99.90;;;;;;5017675;28;20108;-78
2023/11/14 10:57:09;;;;;;;2.03;0.75;;;12.90;99.90;;;;;;5015674;28;20096;-79
2023/11/14 10:59:51;;;;;;;4.38;0.73;;;12.90;99.90;;;;;;5000328;28;20494;-78
2023/11/14 11:02:19;;;;;;;2.50;0.50;;;12.90;99.90;;;;;;5015718;28;20466;-78
2023/11/14 11:04:48;;;;;;;1.92;0.80;;;12.90;99.90;;;;;;4998311;28;20050;-79
2023/11/14 11:07:15;;;;;;;1.55;0.82;;;12.90;99.90;;;;;;4997361;28;20571;-79
2023/11/14 11:09:42;;;;;;;3.40;0.70;;;12.90;99.90;;;;;;5015067;28;20057;-79
2023/11/14 11:12:09;;;;;;;1.75;0.70;;;12.90;99.90;;;;;;4999008;28;20058;-77
2023/11/14 11:14:36;;;;;;;1.23;0.55;;;12.90;99.90;;;;;;5016954;28;20114;-77
2023/11/14 11:17:03;;;;;;;3.20;0.70;;;12.90;99.90;;;;;;4999859;28;20042;-77
2023/11/14 11:19:30;;;;;;;2.63;0.70;;;12.90;99.90;;;;;;5017235;28;20052;-78
2023/11/14 11:22:03;;;;;;;3.78;0.80;;;12.90;99.90;;;;;;5018992;28;20050;-78
2023/11/14 11:24:30;;;;;;;3.03;1.10;;;13.00;99.90;;;;;;5017979;28;20076;-77
2023/11/14 11:27:20;;;;;;;3.88;0.88;;;13.00;99.90;;;;;;5017838;28;20050;-77
2023/11/14 11:29:54;;;;;;;2.20;0.82;;;13.00;99.90;;;;;;5016909;28;20042;-77
2023/11/14 11:32:28;;;;;;;2.50;1.10;;;13.00;99.90;;;;;;5015807;28;20420;-78
2023/11/14 11:35:20;;;;;;;3.75;2.38;;;13.00;99.90;;;;;;5015033;28;20050;-78
2023/11/14 11:37:51;;;;;;;1.83;0.93;;;13.00;99.90;;;;;;4997862;28;20077;-78
2023/11/14 11:40:27;;;;;;;2.67;0.85;;;13.00;99.90;;;;;;4997787;28;20061;-80
2023/11/14 11:43:20;;;;;;;1.80;0.73;;;13.00;99.90;;;;;;4997101;28;20081;-78
2023/11/14 11:45:49;;;;;;;2.15;1.05;;;13.00;99.90;;;;;;4989370;28;20054;-78
2023/11/14 11:48:36;;;;;;;2.83;1.33;;;13.00;99.90;;;;;;5015096;28;20042;-79
2023/11/14 11:51:29;;;;;;;3.90;0.88;;;12.90;99.90;;;;;;5015375;28;20407;-79
2023/11/14 11:53:56;;;;;;;2.92;0.70;;;12.90;99.90;;;;;;5011048;28;20050;-79
2023/11/14 11:56:35;;;;;;;4.38;1.10;;;12.80;99.90;;;;;;5014550;28;20072;-78
2023/11/14 11:59:03;;;;;;;3.38;0.90;;;12.80;99.90;;;;;;5014601;28;20477;-78
2023/11/14 12:01:31;;;;;;;2.70;0.70;;;12.80;99.90;;;;;;4997481;28;20060;-78
2023/11/14 12:03:59;;;;;;;4.38;0.95;;;12.70;99.90;;;;;;5014371;28;20052;-78
2023/11/14 12:06:26;;;;;;;4.93;1.35;;;12.70;99.90;;;;;;5014974;28;20046;-78
2023/11/14 12:08:54;;;;;;;3.47;0.80;;;12.70;99.90;;;;;;5014865;28;20097;-78
2023/11/14 12:11:24;;;;;;;4.35;0.90;;;12.70;99.90;;;;;;5016153;23;20047;-81
2023/11/14 12:13:53;;;;;;;2.92;1.00;;;12.60;99.90;;;;;;4993381;28;20054;-80
2023/11/14 12:16:21;;;;;;;3.03;0.80;;;12.60;99.90;;;;;;4995907;28;20552;-80
2023/11/14 12:18:49;;;;;;;3.95;1.05;;;12.60;99.90;;;;;;4995669;28;20050;-79
2023/11/14 12:21:17;;;;;;;3.25;1.20;;;12.60;99.90;;;;;;4984975;28;20046;-81
2023/11/14 12:23:45;;;;;;;4.88;1.02;;;12.60;99.90;;;;;;4979603;28;20058;-80
2023/11/14 12:26:12;;;;;;;3.55;1.00;;;12.60;99.90;;;;;;4978102;28;20055;-81
2023/11/14 12:28:41;;;;;;;5.00;0.80;;;12.50;99.90;;;;;;4982541;28;20097;-77
2023/11/14 12:31:09;;;;;;;3.90;1.48;;;12.40;99.90;;;;;;4983357;28;20047;-80
2023/11/14 12:33:48;;;;;;;1.60;0.88;;;12.40;99.90;;;;;;4982562;28;20047;-80
2023/11/14 12:36:25;;;;;;;2.92;0.90;;;12.40;99.90;;;;;;4985159;28;20058;-80
2023/11/14 12:38:52;;;;;;;2.65;1.17;;;12.40;99.90;;;;;;4974827;28;20051;-78
2023/11/14 12:41:25;;;;;;;5.15;1.45;;;12.40;99.90;;;;;;4977068;28;20426;-80
2023/11/14 12:43:54;;;;;;;4.13;1.08;;;12.40;99.90;;;;;;4984128;28;20538;-79
2023/11/14 12:46:35;;;;;;;5.43;1.20;;;12.40;99.90;;;;;;4995548;28;20121;-79
2023/11/14 12:49:16;;;;;;;4.82;0.90;;;12.30;99.90;;;;;;4978579;28;20051;-80
2023/11/14 12:51:50;;;;;;;4.22;1.38;;;12.30;99.90;;;;;;4975120;28;20047;-81
2023/11/14 12:54:20;;;;;;;5.72;1.17;;;12.20;99.90;;;;;;4973047;28;20498;-81